createdAt,value
2018-11-28T00:02:17.622Z,4.60
2018-11-28T00:05:22.199Z,4.60
2018-11-28T00:08:26.213Z,4.50
2018-11-28T00:11:30.132Z,4.50
2018-11-28T00:14:34.120Z,4.50
2018-11-28T00:17:38.476Z,4.50
2018-11-28T00:20:42.800Z,4.60
2018-11-28T00:23:47.066Z,4.50
2018-11-28T00:26:51.413Z,4.50
2018-11-28T00:29:55.725Z,4.50
2018-11-28T00:32:59.646Z,4.40
2018-11-28T00:36:03.573Z,4.40
2018-11-28T00:39:09.095Z,4.40
2018-11-28T00:42:13.438Z,4.40
2018-11-28T00:45:23.119Z,4.40
2018-11-28T00:48:27.059Z,4.40
2018-11-28T00:51:31.507Z,4.40
2018-11-28T00:54:35.748Z,4.50
2018-11-28T00:57:39.659Z,4.30
2018-11-28T01:00:44.069Z,4.20
2018-11-28T01:03:48.435Z,4.20
2018-11-28T01:06:52.703Z,4.10
2018-11-28T01:09:58.161Z,4.10
2018-11-28T01:13:02.587Z,4.10
2018-11-28T01:16:06.874Z,4.00
2018-11-28T01:19:11.209Z,4.00
2018-11-28T01:22:15.364Z,4.00
2018-11-28T01:25:20.377Z,4.10
2018-11-28T01:28:24.752Z,4.10
2018-11-28T01:31:29.011Z,4.00
2018-11-28T01:34:33.448Z,3.80
2018-11-28T01:37:38.024Z,3.80
2018-11-28T01:40:42.213Z,3.80
2018-11-28T01:43:46.524Z,4.00
2018-11-28T01:46:50.616Z,4.10
2018-11-28T01:49:54.488Z,4.10
2018-11-28T01:52:58.795Z,4.20
2018-11-28T01:56:03.097Z,4.30
2018-11-28T01:59:07.025Z,4.40
2018-11-28T02:02:11.084Z,4.50
2018-11-28T02:05:15.063Z,4.60
2018-11-28T02:08:19.279Z,4.70
2018-11-28T02:11:23.459Z,4.80
2018-11-28T02:14:27.502Z,4.80
2018-11-28T02:17:31.969Z,4.80
2018-11-28T02:20:36.138Z,4.80
2018-11-28T02:23:40.133Z,4.90
2018-11-28T02:26:44.534Z,5.00
2018-11-28T02:29:48.481Z,5.00
2018-11-28T02:32:52.915Z,4.90
2018-11-28T02:35:56.845Z,5.00
2018-11-28T02:39:00.750Z,5.10
2018-11-28T02:42:04.709Z,5.40
2018-11-28T02:45:14.613Z,5.50
2018-11-28T02:48:18.908Z,5.50
2018-11-28T02:51:23.260Z,5.40
2018-11-28T02:54:27.683Z,5.30
2018-11-28T02:57:31.886Z,5.20
2018-11-28T03:00:36.012Z,5.20
2018-11-28T03:03:40.185Z,5.10
2018-11-28T03:06:44.588Z,5.10
2018-11-28T03:09:48.993Z,5.00
2018-11-28T03:12:54.063Z,5.00
2018-11-28T03:16:00.668Z,4.90
2018-11-28T03:19:04.969Z,4.90
2018-11-28T03:22:09.224Z,4.70
2018-11-28T03:25:13.699Z,4.70
2018-11-28T03:28:18.633Z,4.70
2018-11-28T03:31:22.721Z,4.70
2018-11-28T03:34:27.015Z,4.80
2018-11-28T03:37:31.323Z,4.80
2018-11-28T03:40:35.507Z,4.80
2018-11-28T03:43:39.905Z,4.90
2018-11-28T03:46:44.135Z,5.00
2018-11-28T03:49:48.548Z,4.90
2018-11-28T03:52:52.805Z,4.90
2018-11-28T03:55:57.084Z,4.90
2018-11-28T03:59:01.570Z,4.90
2018-11-28T04:02:06.205Z,4.90
2018-11-28T04:05:10.790Z,4.90
2018-11-28T04:08:14.867Z,4.90
2018-11-28T04:11:19.212Z,4.90
2018-11-28T04:14:23.315Z,4.90
2018-11-28T04:17:27.721Z,4.90
2018-11-28T04:20:32.029Z,4.90
2018-11-28T04:23:36.342Z,5.00
2018-11-28T04:26:40.644Z,5.00
2018-11-28T04:29:44.861Z,4.90
2018-11-28T04:32:49.327Z,4.90
2018-11-28T04:35:53.562Z,5.00
2018-11-28T04:38:57.826Z,4.90
2018-11-28T04:42:02.132Z,5.00
2018-11-28T04:45:07.734Z,5.00
2018-11-28T04:48:12.030Z,5.00
2018-11-28T04:51:16.134Z,4.90
2018-11-28T04:54:20.391Z,5.00
2018-11-28T04:57:24.883Z,4.90
2018-11-28T05:00:29.125Z,4.90
2018-11-28T05:03:34.120Z,4.90
2018-11-28T05:07:43.464Z,5.00
2018-11-28T05:10:47.713Z,4.90
2018-11-28T05:13:51.917Z,4.80
2018-11-28T05:16:56.172Z,4.80
2018-11-28T05:20:00.461Z,4.40
2018-11-28T05:23:05.920Z,4.30
2018-11-28T05:26:10.267Z,4.30
2018-11-28T05:29:15.302Z,4.00
2018-11-28T05:32:19.640Z,3.90
2018-11-28T05:35:27.783Z,3.70
2018-11-28T05:38:31.905Z,3.60
2018-11-28T05:41:36.150Z,3.40
2018-11-28T05:44:40.363Z,3.30
2018-11-28T05:47:44.521Z,3.30
2018-11-28T05:50:48.779Z,3.20
2018-11-28T05:53:53.286Z,3.10
2018-11-28T05:56:57.470Z,3.10
2018-11-28T06:00:01.975Z,3.10
2018-11-28T06:03:08.105Z,3.00
2018-11-28T06:06:12.306Z,3.00
2018-11-28T06:09:22.954Z,2.90
2018-11-28T06:12:27.239Z,2.90
2018-11-28T06:15:31.738Z,2.80
2018-11-28T06:18:35.935Z,2.80
2018-11-28T06:21:40.595Z,2.80
2018-11-28T06:24:44.994Z,2.80
2018-11-28T06:27:49.427Z,2.80
2018-11-28T06:30:53.510Z,2.80
2018-11-28T06:33:57.630Z,2.80
2018-11-28T06:37:02.574Z,2.80
2018-11-28T06:40:12.607Z,2.90
2018-11-28T06:43:16.808Z,2.80
2018-11-28T06:46:21.180Z,2.90
2018-11-28T06:49:25.335Z,2.90
2018-11-28T06:52:29.601Z,2.80
2018-11-28T06:55:33.889Z,2.80
2018-11-28T06:58:38.257Z,2.80
2018-11-28T07:01:42.655Z,2.80
2018-11-28T07:04:47.964Z,2.80
2018-11-28T07:07:51.552Z,2.90
2018-11-28T07:10:55.739Z,2.80
2018-11-28T07:14:06.505Z,2.80
2018-11-28T07:17:10.852Z,2.80
2018-11-28T07:20:15.703Z,2.80
2018-11-28T07:23:20.034Z,2.80
2018-11-28T07:26:24.362Z,2.90
2018-11-28T07:29:28.662Z,3.00
2018-11-28T07:32:32.845Z,3.10
2018-11-28T07:35:37.431Z,3.10
2018-11-28T07:38:41.818Z,3.20
2018-11-28T07:41:46.155Z,3.30
2018-11-28T07:44:50.679Z,3.50
2018-11-28T07:47:55.122Z,3.60
2018-11-28T07:50:59.631Z,3.70
2018-11-28T07:54:03.730Z,3.70
2018-11-28T07:57:07.844Z,3.70
2018-11-28T08:00:14.050Z,3.70
2018-11-28T08:03:18.485Z,3.70
2018-11-28T08:06:23.439Z,3.80
2018-11-28T08:09:27.906Z,3.70
2018-11-28T08:12:32.128Z,3.80
2018-11-28T08:15:36.604Z,3.80
2018-11-28T08:18:42.113Z,3.80
2018-11-28T08:21:45.220Z,3.90
2018-11-28T08:24:49.385Z,4.00
2018-11-28T08:27:53.913Z,4.00
2018-11-28T08:30:58.577Z,4.00
2018-11-28T08:34:03.007Z,4.00
2018-11-28T08:37:07.391Z,4.20
2018-11-28T08:40:13.686Z,4.30
2018-11-28T08:43:18.721Z,4.20
2018-11-28T08:46:23.117Z,4.20
2018-11-28T08:49:27.585Z,3.90
2018-11-28T08:52:32.001Z,3.90
2018-11-28T08:55:36.171Z,4.10
2018-11-28T08:58:40.549Z,4.00
2018-11-28T09:01:44.969Z,3.90
2018-11-28T09:04:49.471Z,4.00
2018-11-28T09:07:53.983Z,3.90
2018-11-28T09:10:58.449Z,4.10
2018-11-28T09:14:04.665Z,4.20
2018-11-28T09:17:07.617Z,4.40
2018-11-28T09:20:12.982Z,4.40
2018-11-28T09:23:17.571Z,4.50
2018-11-28T09:26:21.512Z,4.60
2018-11-28T09:29:25.842Z,4.70
2018-11-28T09:32:30.122Z,5.00
2018-11-28T09:35:34.542Z,5.10
2018-11-28T09:38:38.900Z,5.30
2018-11-28T09:41:42.956Z,5.50
2018-11-28T09:44:47.180Z,5.80
2018-11-28T09:47:51.584Z,5.60
2018-11-28T09:50:55.772Z,5.60
2018-11-28T09:54:00.067Z,5.80
2018-11-28T09:57:04.031Z,5.70
2018-11-28T10:00:12.334Z,5.80
2018-11-28T10:03:16.733Z,6.00
2018-11-28T10:06:21.153Z,6.00
2018-11-28T10:09:25.484Z,6.00
2018-11-28T10:12:29.857Z,6.00
2018-11-28T10:15:35.742Z,6.20
2018-11-28T10:18:38.527Z,6.30
2018-11-28T10:21:42.820Z,6.50
2018-11-28T10:24:53.630Z,6.80
2018-11-28T10:28:04.435Z,6.70
2018-11-28T10:31:08.869Z,6.50
2018-11-28T10:34:13.713Z,6.50
2018-11-28T10:37:17.947Z,6.20
2018-11-28T10:40:23.035Z,6.20
2018-11-28T10:43:27.289Z,6.10
2018-11-28T10:46:31.733Z,6.30
2018-11-28T10:49:35.948Z,6.40
2018-11-28T10:52:40.477Z,6.70
2018-11-28T10:55:44.941Z,7.00
2018-11-28T10:58:49.572Z,7.10
2018-11-28T11:01:59.344Z,7.30
2018-11-28T11:05:09.525Z,9.20
2018-11-28T11:08:18.783Z,13.30
2018-11-28T11:11:25.023Z,14.80
2018-11-28T11:14:34.304Z,14.80
2018-11-28T11:17:38.976Z,14.40
2018-11-28T11:20:43.271Z,14.90
2018-11-28T11:23:47.570Z,15.30
2018-11-28T11:26:52.364Z,15.10
2018-11-28T11:29:56.706Z,17.00
2018-11-28T11:33:01.384Z,18.60
2018-11-28T11:36:06.039Z,16.60
2018-11-28T11:39:10.401Z,15.60
2018-11-28T11:42:14.550Z,18.80
2018-11-28T11:45:19.070Z,21.80
2018-11-28T11:48:23.559Z,22.50
2018-11-28T11:51:27.513Z,22.50
2018-11-28T11:54:32.246Z,22.20
2018-11-28T11:57:36.822Z,23.60
2018-11-28T12:00:42.420Z,25.10
2018-11-28T12:03:46.813Z,26.40
2018-11-28T12:06:51.981Z,26.60
2018-11-28T12:09:57.450Z,25.50
2018-11-28T12:13:02.123Z,25.40
2018-11-28T12:16:06.527Z,25.50
2018-11-28T12:19:10.845Z,26.50
2018-11-28T12:22:15.193Z,26.80
2018-11-28T12:25:19.632Z,27.20
2018-11-28T12:28:23.916Z,27.30
2018-11-28T12:31:28.292Z,27.10
2018-11-28T12:34:32.781Z,25.80
2018-11-28T12:37:37.256Z,25.30
2018-11-28T12:40:41.696Z,24.90
2018-11-28T12:43:45.879Z,25.70
2018-11-28T12:46:50.466Z,25.20
2018-11-28T12:49:55.725Z,25.50
2018-11-28T12:53:01.206Z,25.90
2018-11-28T12:56:06.051Z,26.50
2018-11-28T12:59:10.458Z,26.80
2018-11-28T13:02:15.587Z,26.30
2018-11-28T13:05:21.957Z,25.70
2018-11-28T13:08:26.449Z,24.70
2018-11-28T13:11:31.413Z,23.00
2018-11-28T13:14:35.802Z,23.00
2018-11-28T13:17:40.163Z,22.80
2018-11-28T13:20:44.477Z,22.20
2018-11-28T13:23:48.848Z,22.20
2018-11-28T13:26:53.359Z,21.70
2018-11-28T13:29:58.014Z,21.80
2018-11-28T13:33:02.445Z,21.60
2018-11-28T13:36:06.923Z,21.70
2018-11-28T13:39:11.271Z,21.80
2018-11-28T13:42:16.564Z,21.30
2018-11-28T13:45:27.704Z,20.90
2018-11-28T13:48:32.400Z,18.40
2018-11-28T13:51:43.369Z,17.20
2018-11-28T13:55:38.597Z,17.80
2018-11-28T13:57:53.108Z,18.10
2018-11-28T14:00:57.366Z,18.00
2018-11-28T14:04:01.528Z,17.60
2018-11-28T14:07:06.367Z,16.10
2018-11-28T14:10:12.497Z,14.90
2018-11-28T14:13:17.048Z,14.20
2018-11-28T14:16:21.552Z,13.50
2018-11-28T14:19:25.709Z,12.80
2018-11-28T14:22:30.238Z,12.00
2018-11-28T14:25:34.788Z,11.10
2018-11-28T14:28:39.141Z,10.20
2018-11-28T14:31:43.627Z,9.40
2018-11-28T14:34:47.743Z,8.60
2018-11-28T14:37:51.841Z,8.30
2018-11-28T14:40:55.837Z,8.00
2018-11-28T14:44:00.135Z,7.70
2018-11-28T14:47:04.440Z,7.50
2018-11-28T14:50:13.737Z,7.40
2018-11-28T14:53:18.101Z,7.20
2018-11-28T14:56:22.713Z,7.00
2018-11-28T14:59:28.043Z,6.80
2018-11-28T15:02:32.310Z,6.60
2018-11-28T15:05:49.851Z,6.40
2018-11-28T15:08:58.301Z,6.20
2018-11-28T15:12:02.982Z,6.10
2018-11-28T15:15:08.373Z,6.00
2018-11-28T15:18:12.693Z,6.00
2018-11-28T15:21:17.374Z,5.90
2018-11-28T15:24:21.827Z,5.80
2018-11-28T15:27:26.047Z,5.80
2018-11-28T15:30:30.523Z,5.70
2018-11-28T15:33:35.037Z,5.60
2018-11-28T15:36:39.650Z,5.50
2018-11-28T15:39:44.101Z,5.50
2018-11-28T15:42:48.602Z,5.40
2018-11-28T15:45:53.697Z,5.30
2018-11-28T15:49:04.240Z,5.30
2018-11-28T15:52:08.703Z,5.30
2018-11-28T15:55:13.695Z,5.30
2018-11-28T15:58:18.930Z,5.20
2018-11-28T16:01:23.245Z,5.20
2018-11-28T16:04:27.690Z,5.20
2018-11-28T16:07:32.065Z,5.30
2018-11-28T16:10:41.454Z,5.30
2018-11-28T16:13:45.779Z,5.30
2018-11-28T16:16:50.208Z,5.20
2018-11-28T16:19:54.654Z,5.10
2018-11-28T16:23:04.225Z,5.00
2018-11-28T16:26:03.452Z,5.00
2018-11-28T16:29:07.996Z,5.00
2018-11-28T16:32:12.901Z,4.90
2018-11-28T16:35:19.268Z,4.90
2018-11-28T16:38:23.597Z,4.90
2018-11-28T16:41:27.977Z,4.70
2018-11-28T16:44:32.326Z,4.70
2018-11-28T16:47:37.007Z,4.70
2018-11-28T16:50:41.394Z,4.70
2018-11-28T16:53:45.617Z,4.70
2018-11-28T16:56:50.016Z,4.70
2018-11-28T16:59:54.283Z,4.70
2018-11-28T17:02:58.769Z,4.70
2018-11-28T17:06:03.630Z,4.80
2018-11-28T17:09:09.487Z,4.80
2018-11-28T17:12:14.079Z,4.80
2018-11-28T17:15:18.873Z,4.80
2018-11-28T17:18:23.308Z,4.90
2018-11-28T17:21:27.648Z,4.80
2018-11-28T17:24:32.117Z,4.90
2018-11-28T17:27:36.756Z,4.90
2018-11-28T17:30:41.099Z,4.90
2018-11-28T17:33:45.673Z,5.00
2018-11-28T17:36:50.093Z,4.90
2018-11-28T17:39:54.220Z,4.90
2018-11-28T17:42:59.412Z,4.90
2018-11-28T17:46:03.973Z,4.90
2018-11-28T17:49:08.413Z,4.90
2018-11-28T17:52:12.737Z,4.70
2018-11-28T17:55:17.759Z,4.70
2018-11-28T17:58:21.756Z,4.60
2018-11-28T18:01:26.144Z,4.50
2018-11-28T18:04:30.611Z,4.50
2018-11-28T18:07:35.049Z,4.50
2018-11-28T18:10:40.015Z,4.50
2018-11-28T18:13:45.493Z,4.30
2018-11-28T18:16:51.036Z,4.30
2018-11-28T18:19:57.725Z,4.30
2018-11-28T18:23:04.907Z,4.30
2018-11-28T18:26:11.965Z,4.30
2018-11-28T18:29:16.169Z,4.20
2018-11-28T18:32:20.609Z,4.10
2018-11-28T18:35:24.937Z,4.00
2018-11-28T18:38:29.625Z,4.10
2018-11-28T18:41:34.143Z,4.10
2018-11-28T18:44:39.465Z,4.10
2018-11-28T18:47:43.593Z,4.20
2018-11-28T18:50:48.122Z,4.20
2018-11-28T18:53:52.472Z,4.20
2018-11-28T18:56:56.984Z,4.20
2018-11-28T19:00:01.864Z,4.20
2018-11-28T19:03:07.495Z,4.20
2018-11-28T19:06:11.833Z,4.20
2018-11-28T19:09:21.461Z,4.10
2018-11-28T19:12:25.969Z,4.10
2018-11-28T19:15:30.431Z,4.10
2018-11-28T19:18:34.680Z,4.00
2018-11-28T19:21:39.026Z,4.00
2018-11-28T19:24:43.356Z,4.00
2018-11-28T19:27:47.700Z,4.00
2018-11-28T19:30:52.465Z,4.00
2018-11-28T19:33:56.690Z,4.00
2018-11-28T19:37:08.567Z,4.00
2018-11-28T19:40:30.441Z,3.90
2018-11-28T19:43:35.072Z,3.80
2018-11-28T19:46:39.048Z,3.80
2018-11-28T19:49:43.598Z,3.80
2018-11-28T19:52:49.189Z,3.60
2018-11-28T19:55:53.585Z,3.50
2018-11-28T19:58:58.169Z,3.40
2018-11-28T20:02:02.469Z,3.50
2018-11-28T20:05:06.855Z,3.40
2018-11-28T20:08:11.855Z,3.30
2018-11-28T20:11:16.998Z,3.30
2018-11-28T20:14:21.252Z,3.40
2018-11-28T20:17:25.604Z,3.40
2018-11-28T20:20:29.780Z,3.50
2018-11-28T20:23:34.478Z,3.50
2018-11-28T20:26:39.743Z,3.50
2018-11-28T20:29:44.524Z,3.60
2018-11-28T20:32:49.455Z,3.60
2018-11-28T20:35:55.852Z,3.60
2018-11-28T20:39:00.160Z,3.60
2018-11-28T20:42:05.736Z,3.60
2018-11-28T20:45:11.012Z,3.70
2018-11-28T20:48:16.271Z,3.60
2018-11-28T20:51:21.024Z,3.70
2018-11-28T20:54:26.546Z,3.70
2018-11-28T20:57:31.371Z,3.70
2018-11-28T21:00:36.418Z,3.60
2018-11-28T21:03:40.764Z,3.60
2018-11-28T21:06:45.491Z,3.60
2018-11-28T21:09:54.267Z,3.50
2018-11-28T21:12:58.618Z,3.60
2018-11-28T21:16:04.964Z,3.60
2018-11-28T21:19:08.956Z,3.50
2018-11-28T21:22:13.370Z,3.50
2018-11-28T21:25:18.014Z,3.60
2018-11-28T21:28:24.683Z,3.60
2018-11-28T21:31:29.231Z,3.40
2018-11-28T21:34:33.244Z,3.40
2018-11-28T21:37:37.711Z,3.40
2018-11-28T21:40:42.138Z,3.50
2018-11-28T21:43:47.594Z,3.50
2018-11-28T21:46:51.520Z,3.50
2018-11-28T21:49:55.624Z,3.50
2018-11-28T21:53:00.139Z,3.50
2018-11-28T21:56:04.252Z,3.50
2018-11-28T21:59:08.783Z,3.40
2018-11-28T22:02:13.296Z,3.40
2018-11-28T22:05:18.394Z,3.40
2018-11-28T22:08:22.837Z,3.40
2018-11-28T22:11:27.189Z,3.40
2018-11-28T22:14:31.495Z,3.40
2018-11-28T22:17:35.803Z,3.30
2018-11-28T22:20:40.392Z,3.30
2018-11-28T22:23:44.760Z,3.30
2018-11-28T22:26:49.299Z,3.30
2018-11-28T22:29:53.795Z,3.30
2018-11-28T22:32:58.362Z,3.30
2018-11-28T22:36:02.785Z,3.20
2018-11-28T22:39:09.247Z,3.20
2018-11-28T22:42:13.649Z,3.20
2018-11-28T22:45:34.393Z,3.20
2018-11-28T22:48:38.498Z,3.20
2018-11-28T22:51:42.517Z,3.20
2018-11-28T22:54:47.006Z,3.10
2018-11-28T22:57:51.293Z,3.10
2018-11-28T23:01:00.727Z,3.10
2018-11-28T23:04:05.335Z,3.10
2018-11-28T23:07:09.682Z,3.10
2018-11-28T23:10:14.098Z,3.10
2018-11-28T23:13:20.736Z,3.20
2018-11-28T23:16:24.986Z,3.20
2018-11-28T23:19:29.216Z,3.20
2018-11-28T23:22:33.431Z,3.30
2018-11-28T23:25:37.856Z,3.30
2018-11-28T23:28:42.165Z,3.20
2018-11-28T23:31:46.335Z,3.20
2018-11-28T23:34:50.713Z,3.10
2018-11-28T23:37:55.069Z,3.10
2018-11-28T23:40:59.526Z,3.00
2018-11-28T23:44:04.024Z,3.00
2018-11-28T23:47:08.428Z,3.10
2018-11-28T23:50:15.384Z,3.10
2018-11-28T23:53:19.623Z,3.00
2018-11-28T23:56:23.828Z,3.00
2018-11-28T23:59:28.150Z,3.10
